Time;durP1;ratioP1;P1;durP2;ratioP2;P2;SDS_P1;SDS_P2;PMS_P1;PMS_P2;Temp;Humidity;BMP_temperature;BMP_pressure;BME280_temperature;BME280_humidity;BME280_pressure;Samples;Min_cycle;Max_cycle;Signal;HPM_P1;HPM_P2
2022/11/20 00:01:23;;;;;;;13.63;5.57;;;8.10;99.90;;;;;;5021040;28;20056;-74
2022/11/20 00:03:50;;;;;;;0.10;0.10;;;8.10;99.90;;;;;;5002706;28;20041;-74
2022/11/20 00:06:19;;;;;;;0.10;0.10;;;8.10;99.90;;;;;;5019965;28;20335;-74
2022/11/20 00:08:46;;;;;;;0.10;0.10;;;8.10;99.90;;;;;;5001508;28;20037;-74
2022/11/20 00:11:17;;;;;;;0.13;0.13;;;8.10;99.90;;;;;;5025856;28;20101;-75
2022/11/20 00:13:48;;;;;;;0.10;0.10;;;9.80;99.90;;;;;;5019934;28;20017;-76
2022/11/20 00:16:16;;;;;;;0.10;0.10;;;8.20;99.90;;;;;;5019918;28;20028;-75
2022/11/20 00:18:44;;;;;;;4.43;4.03;;;7.60;99.90;;;;;;5019605;28;20026;-74
2022/11/20 00:21:14;;;;;;;0.10;0.10;;;8.20;99.90;;;;;;5019092;28;20471;-74
2022/11/20 00:23:41;;;;;;;0.10;0.10;;;8.10;99.90;;;;;;5019416;28;20036;-74
2022/11/20 00:26:15;;;;;;;0.10;0.10;;;8.10;99.90;;;;;;5000609;28;20038;-75
2022/11/20 00:28:42;;;;;;;0.10;0.10;;;8.10;99.90;;;;;;5018832;28;20024;-75
2022/11/20 00:31:10;;;;;;;0.20;0.20;;;8.00;99.90;;;;;;5019311;28;20021;-74
2022/11/20 00:33:36;;;;;;;0.20;0.20;;;8.00;99.90;;;;;;5025469;28;20017;-74
2022/11/20 00:36:04;;;;;;;0.20;0.20;;;8.00;99.90;;;;;;5019821;28;20053;-75
2022/11/20 00:38:31;;;;;;;0.15;0.15;;;8.00;99.90;;;;;;5018897;28;20030;-74
2022/11/20 00:41:02;;;;;;;0.10;0.10;;;8.00;99.90;;;;;;5018870;28;20103;-75
2022/11/20 00:43:28;;;;;;;0.13;0.13;;;8.00;99.90;;;;;;5020731;28;20033;-75
2022/11/20 00:46:21;;;;;;;0.20;0.20;;;8.00;99.90;;;;;;5021685;28;20029;-74
2022/11/20 00:48:48;;;;;;;0.17;0.17;;;8.00;99.90;;;;;;5015355;28;20543;-74
2022/11/20 00:51:19;;;;;;;0.10;0.10;;;8.00;99.90;;;;;;5018328;28;20619;-74
2022/11/20 00:53:45;;;;;;;0.20;0.20;;;8.00;99.90;;;;;;4999969;28;20118;-75
2022/11/20 00:56:14;;;;;;;0.15;0.15;;;8.40;99.90;;;;;;5018298;28;20416;-75
2022/11/20 00:58:42;;;;;;;1.10;1.10;;;8.10;99.90;;;;;;5019071;28;20100;-75
2022/11/20 01:01:20;;;;;;;3.85;3.67;;;8.10;99.90;;;;;;5019091;28;20105;-74
2022/11/20 01:03:48;;;;;;;0.10;0.10;;;8.10;99.90;;;;;;5018314;28;20467;-74
2022/11/20 01:06:20;;;;;;;0.10;0.10;;;8.10;99.90;;;;;;5018226;28;20096;-74
2022/11/20 01:08:47;;;;;;;0.20;0.20;;;8.10;99.90;;;;;;5020856;28;20064;-74
2022/11/20 01:11:15;;;;;;;0.15;0.15;;;8.10;99.90;;;;;;5020419;28;20032;-75
2022/11/20 01:13:42;;;;;;;0.20;0.20;;;8.20;99.90;;;;;;5019301;28;20045;-74
2022/11/20 01:16:15;;;;;;;0.10;0.10;;;8.20;99.90;;;;;;5018635;28;20056;-74
2022/11/20 01:18:46;;;;;;;0.10;0.10;;;8.10;99.90;;;;;;5000883;28;20440;-74
2022/11/20 01:21:17;;;;;;;0.20;0.20;;;8.00;99.90;;;;;;5025204;28;20025;-74
2022/11/20 01:23:43;;;;;;;0.17;0.17;;;8.10;99.90;;;;;;5018896;28;20025;-74
2022/11/20 01:26:12;;;;;;;0.20;0.20;;;8.00;99.90;;;;;;5030319;28;20053;-74
2022/11/20 01:28:39;;;;;;;0.20;0.20;;;8.00;99.90;;;;;;5018807;28;20021;-74
2022/11/20 01:31:17;;;;;;;0.10;0.10;;;8.00;99.90;;;;;;5018697;28;20084;-74
2022/11/20 01:33:44;;;;;;;0.03;0.03;;;8.00;99.90;;;;;;5018842;28;20018;-74
2022/11/20 01:36:12;;;;;;;0.10;0.10;;;8.00;99.90;;;;;;5018214;28;20059;-74
2022/11/20 01:38:38;;;;;;;0.10;0.10;;;8.00;99.90;;;;;;5018510;28;20582;-74
2022/11/20 01:41:04;;;;;;;0.95;0.95;;;8.00;99.90;;;;;;5018883;28;20037;-74
2022/11/20 01:43:31;;;;;;;5.95;5.47;;;8.00;99.90;;;;;;5018652;28;20314;-74
2022/11/20 01:46:17;;;;;;;0.10;0.10;;;8.00;99.90;;;;;;5019005;28;20044;-74
2022/11/20 01:48:56;;;;;;;0.10;0.10;;;8.00;99.90;;;;;;5021099;28;20048;-74
2022/11/20 01:51:41;;;;;;;7.55;7.15;;;8.10;99.90;;;;;;5021863;28;20112;-74
2022/11/20 01:54:12;;;;;;;0.10;0.10;;;8.10;99.90;;;;;;5022163;28;20064;-75
2022/11/20 01:56:42;;;;;;;0.65;0.65;;;8.10;99.90;;;;;;5022209;28;20043;-74
2022/11/20 01:59:10;;;;;;;0.10;0.10;;;8.10;99.90;;;;;;5021938;28;20017;-74
2022/11/20 02:01:38;;;;;;;0.20;0.20;;;8.10;99.90;;;;;;5004412;28;20490;-74
2022/11/20 02:04:05;;;;;;;0.30;0.30;;;8.10;99.90;;;;;;5022117;28;20368;-74
2022/11/20 02:06:43;;;;;;;0.30;0.30;;;8.10;99.90;;;;;;5021432;28;20319;-74
2022/11/20 02:09:09;;;;;;;0.20;0.20;;;8.10;99.90;;;;;;5003382;28;20037;-74
2022/11/20 02:11:35;;;;;;;1.10;1.10;;;8.10;99.90;;;;;;5004189;28;20320;-74
2022/11/20 02:14:01;;;;;;;0.10;0.10;;;8.20;99.90;;;;;;5027950;28;20064;-74
2022/11/20 02:16:30;;;;;;;0.30;0.30;;;8.20;99.90;;;;;;5021908;28;20028;-74
2022/11/20 02:18:59;;;;;;;0.20;0.20;;;8.10;99.90;;;;;;5025890;28;20040;-74
2022/11/20 02:21:54;;;;;;;0.10;0.10;;;8.10;99.90;;;;;;5003211;28;20504;-74
2022/11/20 02:24:21;;;;;;;0.10;0.10;;;8.00;99.90;;;;;;5016318;28;20065;-74
2022/11/20 02:27:09;;;;;;;0.20;0.20;;;8.80;99.90;;;;;;5020744;28;20030;-74
2022/11/20 02:29:55;;;;;;;0.17;0.17;;;8.00;99.90;;;;;;5021914;28;20100;-74
2022/11/20 02:32:26;;;;;;;0.17;0.17;;;8.00;99.90;;;;;;5024941;28;20029;-74
2022/11/20 02:34:52;;;;;;;0.10;0.10;;;7.90;99.90;;;;;;5004784;28;20037;-74
2022/11/20 02:37:19;;;;;;;0.20;0.20;;;7.80;99.90;;;;;;5023847;28;20025;-74
2022/11/20 02:39:48;;;;;;;0.10;0.10;;;7.60;99.90;;;;;;5030597;28;20029;-74
2022/11/20 02:42:14;;;;;;;0.20;0.20;;;7.80;99.90;;;;;;5030054;28;20034;-74
2022/11/20 02:44:40;;;;;;;6.78;6.28;;;7.80;99.90;;;;;;5028534;28;20032;-74
2022/11/20 02:47:06;;;;;;;0.10;0.10;;;7.70;99.90;;;;;;5026607;28;20033;-74
2022/11/20 02:49:33;;;;;;;9.07;8.63;;;7.80;99.90;;;;;;5022922;28;20021;-74
2022/11/20 02:51:59;;;;;;;0.15;0.15;;;7.80;99.90;;;;;;5032828;28;20026;-74
2022/11/20 02:54:26;;;;;;;0.10;0.10;;;7.80;99.90;;;;;;5022634;28;20226;-74
2022/11/20 02:56:52;;;;;;;0.10;0.10;;;7.70;99.90;;;;;;5025469;28;20029;-75
2022/11/20 02:59:17;;;;;;;0.10;0.10;;;7.80;99.90;;;;;;5029320;28;20033;-75
2022/11/20 03:01:43;;;;;;;0.20;0.20;;;7.80;99.90;;;;;;5030973;28;20035;-75
2022/11/20 03:04:09;;;;;;;0.20;0.20;;;7.80;99.90;;;;;;5030366;28;20088;-75
2022/11/20 03:06:35;;;;;;;0.10;0.10;;;7.80;99.90;;;;;;5030236;28;20029;-74
2022/11/20 03:09:01;;;;;;;0.15;0.15;;;7.90;99.90;;;;;;5029057;28;20022;-74
2022/11/20 03:11:27;;;;;;;0.20;0.20;;;7.90;99.90;;;;;;5023618;28;20401;-76
2022/11/20 03:13:52;;;;;;;0.20;0.20;;;8.00;99.90;;;;;;5021156;28;20021;-75
2022/11/20 03:16:20;;;;;;;0.10;0.10;;;8.00;99.90;;;;;;5021267;28;20032;-74
2022/11/20 03:18:47;;;;;;;0.10;0.10;;;8.00;99.90;;;;;;5020611;28;20314;-74
2022/11/20 03:21:14;;;;;;;0.20;0.20;;;8.00;99.90;;;;;;5020881;28;20100;-73
2022/11/20 03:23:40;;;;;;;0.20;0.20;;;8.00;99.90;;;;;;5020797;28;20631;-74
2022/11/20 03:26:19;;;;;;;0.17;0.17;;;8.00;99.90;;;;;;5028113;28;20091;-74
2022/11/20 03:28:50;;;;;;;0.20;0.20;;;8.10;99.90;;;;;;5020951;28;20570;-74
2022/11/20 03:31:18;;;;;;;0.20;0.20;;;8.10;99.90;;;;;;5020492;28;20025;-73
2022/11/20 03:33:44;;;;;;;0.13;0.13;;;8.10;99.90;;;;;;5020652;28;20101;-74
2022/11/20 03:36:13;;;;;;;0.20;0.20;;;8.20;99.90;;;;;;5020024;28;20141;-74
2022/11/20 03:38:39;;;;;;;0.20;0.20;;;8.20;99.90;;;;;;5020281;28;20032;-74
2022/11/20 03:41:09;;;;;;;0.10;0.10;;;8.10;99.90;;;;;;5002174;28;20077;-74
2022/11/20 03:43:36;;;;;;;0.10;0.10;;;8.10;99.90;;;;;;5019380;28;20111;-75
2022/11/20 03:46:04;;;;;;;0.20;0.20;;;8.10;99.90;;;;;;5019278;28;20036;-73
2022/11/20 03:48:30;;;;;;;0.22;0.22;;;8.10;99.90;;;;;;5001506;28;20499;-74
2022/11/20 03:51:21;;;;;;;0.10;0.10;;;8.20;99.90;;;;;;5002022;28;20030;-74
2022/11/20 03:53:48;;;;;;;0.10;0.10;;;9.90;99.90;;;;;;5023120;28;20105;-74
2022/11/20 03:56:16;;;;;;;0.10;0.10;;;8.10;99.90;;;;;;5021010;28;20033;-75
2022/11/20 03:58:42;;;;;;;0.20;0.20;;;5.50;99.90;;;;;;5020455;28;20033;-74
2022/11/20 04:01:08;;;;;;;0.20;0.20;;;8.10;99.90;;;;;;5019868;28;20515;-74
2022/11/20 04:03:35;;;;;;;0.20;0.20;;;8.10;99.90;;;;;;5019919;28;20103;-74
2022/11/20 04:06:13;;;;;;;0.10;0.10;;;8.10;99.90;;;;;;5019593;28;20049;-73
2022/11/20 04:08:40;;;;;;;2.30;2.20;;;8.00;99.90;;;;;;5019481;28;20215;-74
2022/11/20 04:11:12;;;;;;;0.10;0.10;;;8.00;99.90;;;;;;5020206;28;20439;-74
2022/11/20 04:13:38;;;;;;;0.10;0.10;;;8.10;99.90;;;;;;5019815;28;20056;-74
2022/11/20 04:16:05;;;;;;;0.25;0.25;;;8.00;99.90;;;;;;5019660;28;20099;-74
2022/11/20 04:18:31;;;;;;;0.10;0.10;;;8.00;99.90;;;;;;5019419;28;20075;-74
2022/11/20 04:20:58;;;;;;;0.10;0.10;;;8.00;99.90;;;;;;5019731;28;20030;-74
2022/11/20 04:23:24;;;;;;;0.20;0.20;;;8.00;99.90;;;;;;5019852;28;20072;-74
2022/11/20 04:25:50;;;;;;;0.20;0.20;;;8.00;99.90;;;;;;5019992;28;20432;-74
2022/11/20 04:28:16;;;;;;;0.20;0.20;;;8.00;99.90;;;;;;5019742;28;20031;-74
2022/11/20 04:30:42;;;;;;;1.23;1.23;;;8.00;99.90;;;;;;5019672;28;20225;-74
2022/11/20 04:33:07;;;;;;;0.20;0.20;;;8.00;99.90;;;;;;5019462;28;20026;-74
2022/11/20 04:35:38;;;;;;;0.10;0.10;;;8.00;99.90;;;;;;5019538;28;20032;-74
2022/11/20 04:38:04;;;;;;;0.20;0.20;;;8.00;99.90;;;;;;5027515;28;20029;-74
2022/11/20 04:40:30;;;;;;;0.20;0.20;;;8.10;99.90;;;;;;5019495;28;20087;-74
2022/11/20 04:42:58;;;;;;;0.10;0.10;;;8.10;99.90;;;;;;5000295;28;20321;-74
2022/11/20 04:45:23;;;;;;;0.20;0.20;;;8.10;99.90;;;;;;5019100;28;20436;-74
2022/11/20 04:47:49;;;;;;;0.10;0.10;;;8.10;99.90;;;;;;5019167;28;20116;-74
2022/11/20 04:50:15;;;;;;;0.10;0.10;;;8.10;99.90;;;;;;5021497;28;20037;-74
2022/11/20 04:52:43;;;;;;;0.10;0.10;;;8.10;99.90;;;;;;5019252;28;20037;-73
2022/11/20 04:55:08;;;;;;;0.10;0.10;;;8.20;99.90;;;;;;5018506;28;20093;-74
2022/11/20 04:57:34;;;;;;;0.20;0.20;;;8.10;99.90;;;;;;5018777;28;20121;-74
2022/11/20 05:00:00;;;;;;;0.10;0.10;;;8.10;99.90;;;;;;5018923;28;20034;-74
2022/11/20 05:02:25;;;;;;;0.10;0.10;;;8.10;99.90;;;;;;5019005;28;20045;-75
2022/11/20 05:04:51;;;;;;;0.17;0.17;;;8.10;99.90;;;;;;5018665;28;20056;-74
2022/11/20 05:07:17;;;;;;;0.20;0.20;;;8.20;99.90;;;;;;5018566;28;20065;-74
2022/11/20 05:09:43;;;;;;;0.17;0.17;;;8.20;99.90;;;;;;5019029;28;20052;-74
2022/11/20 05:12:08;;;;;;;0.13;0.13;;;8.20;99.90;;;;;;5019238;28;20328;-74
2022/11/20 05:14:34;;;;;;;0.10;0.10;;;8.20;99.90;;;;;;5004144;28;20315;-74
2022/11/20 05:17:00;;;;;;;0.10;0.10;;;8.20;99.90;;;;;;5021521;28;20018;-75
2022/11/20 05:19:26;;;;;;;0.17;0.17;;;8.20;99.90;;;;;;5002396;28;20538;-75
2022/11/20 05:21:52;;;;;;;0.10;0.10;;;8.20;99.90;;;;;;5019614;28;20503;-74
2022/11/20 05:24:17;;;;;;;0.20;0.20;;;7.80;99.90;;;;;;5023145;28;20033;-74
2022/11/20 05:26:43;;;;;;;0.10;0.10;;;8.20;99.90;;;;;;5023472;28;20120;-74
2022/11/20 05:29:11;;;;;;;0.17;0.17;;;8.20;99.90;;;;;;5026506;28;20072;-74
2022/11/20 05:31:40;;;;;;;0.20;0.20;;;8.20;99.90;;;;;;5030970;28;20101;-75
2022/11/20 05:34:06;;;;;;;0.10;0.10;;;8.10;99.90;;;;;;5022438;28;20118;-74
2022/11/20 05:36:33;;;;;;;0.13;0.13;;;8.10;99.90;;;;;;5022672;28;20112;-74
2022/11/20 05:38:58;;;;;;;0.10;0.10;;;8.10;99.90;;;;;;5022555;28;20029;-75
2022/11/20 05:41:26;;;;;;;0.17;0.17;;;8.00;99.90;;;;;;5031439;28;20212;-74
2022/11/20 05:43:52;;;;;;;0.20;0.20;;;7.90;99.90;;;;;;5023748;28;20021;-74
2022/11/20 05:46:20;;;;;;;10.98;10.63;;;7.90;99.90;;;;;;5026416;28;20342;-74
2022/11/20 05:48:47;;;;;;;0.10;0.10;;;7.90;99.90;;;;;;5022654;28;20666;-74
2022/11/20 05:51:16;;;;;;;2.03;1.98;;;7.90;99.90;;;;;;5022675;28;20041;-74
2022/11/20 05:53:42;;;;;;;0.20;0.20;;;;;;;;;;5022936;28;20076;-74
2022/11/20 05:56:11;;;;;;;0.20;0.20;;;7.90;99.90;;;;;;5024383;28;20036;-75
2022/11/20 05:58:38;;;;;;;0.20;0.20;;;;;;;;;;5029469;28;20017;-75
2022/11/20 06:01:25;;;;;;;0.10;0.10;;;7.90;99.90;;;;;;5028634;28;20036;-74
2022/11/20 06:03:51;;;;;;;0.20;0.20;;;;;;;;;;5009708;28;20065;-74
2022/11/20 06:06:18;;;;;;;0.10;0.10;;;7.90;99.90;;;;;;5026401;28;20060;-75
2022/11/20 06:08:45;;;;;;;1.88;1.75;;;;;;;;;;5021990;28;20014;-76
2022/11/20 06:11:12;;;;;;;0.10;0.10;;;8.00;99.90;;;;;;5022303;28;20222;-74
2022/11/20 06:13:39;;;;;;;0.20;0.20;;;7.90;99.90;;;;;;5022466;28;20512;-74
2022/11/20 06:16:05;;;;;;;0.20;0.20;;;7.90;99.90;;;;;;5021319;28;20123;-74
2022/11/20 06:18:31;;;;;;;0.20;0.20;;;8.00;99.90;;;;;;5021515;28;20488;-74
2022/11/20 06:21:29;;;;;;;0.20;0.20;;;8.00;99.90;;;;;;5021308;28;20029;-74
2022/11/20 06:23:55;;;;;;;0.10;0.10;;;;;;;;;;4921809;29;20710;-74
2022/11/20 06:26:23;;;;;;;0.10;0.10;;;8.00;99.90;;;;;;4905200;29;20119;-74
2022/11/20 06:28:50;;;;;;;0.20;0.20;;;7.80;99.90;;;;;;4921273;29;20039;-74
2022/11/20 06:31:18;;;;;;;0.20;0.20;;;8.00;99.90;;;;;;4921097;29;20097;-74
2022/11/20 06:33:44;;;;;;;0.10;0.10;;;8.00;99.90;;;;;;4921582;29;20071;-74
2022/11/20 06:36:13;;;;;;;0.30;0.30;;;8.00;99.90;;;;;;4923460;29;20249;-74
2022/11/20 06:38:40;;;;;;;0.20;0.20;;;8.10;99.90;;;;;;4925690;29;20116;-74
2022/11/20 06:41:10;;;;;;;0.20;0.20;;;8.10;99.90;;;;;;4921336;29;20573;-74
2022/11/20 06:43:35;;;;;;;0.20;0.20;;;7.90;99.90;;;;;;4922718;29;20302;-74
2022/11/20 06:46:02;;;;;;;0.20;0.20;;;;;;;;;;4921940;29;20071;-74
2022/11/20 06:48:28;;;;;;;0.10;0.10;;;8.20;99.90;;;;;;4921485;29;20036;-75
2022/11/20 06:50:55;;;;;;;0.10;0.10;;;8.60;99.90;;;;;;4922002;29;20146;-74
2022/11/20 06:53:23;;;;;;;0.20;0.20;;;8.20;99.90;;;;;;4922407;29;20566;-74
2022/11/20 06:55:50;;;;;;;0.15;0.15;;;8.20;99.90;;;;;;4922220;29;20662;-74
2022/11/20 06:58:16;;;;;;;0.20;0.20;;;8.20;99.90;;;;;;4921779;29;20098;-74
2022/11/20 07:00:43;;;;;;;0.20;0.20;;;8.20;99.90;;;;;;5019506;28;20032;-74
2022/11/20 07:03:10;;;;;;;0.20;0.20;;;8.20;99.90;;;;;;5021618;28;20056;-74
2022/11/20 07:05:37;;;;;;;0.10;0.10;;;7.90;99.90;;;;;;5021290;28;20030;-74
2022/11/20 07:08:03;;;;;;;0.13;0.13;;;8.30;99.90;;;;;;5021859;28;20103;-75
2022/11/20 07:10:29;;;;;;;0.10;0.10;;;8.20;99.90;;;;;;5022054;28;20101;-74
2022/11/20 07:12:55;;;;;;;0.57;0.57;;;8.20;99.90;;;;;;5020758;28;20112;-74
2022/11/20 07:15:22;;;;;;;0.25;0.25;;;8.10;99.90;;;;;;5023796;28;20031;-74
2022/11/20 07:17:48;;;;;;;0.10;0.10;;;8.10;99.90;;;;;;5021302;28;20337;-74
2022/11/20 07:20:14;;;;;;;0.10;0.10;;;8.20;99.90;;;;;;5020917;28;20101;-74
2022/11/20 07:22:41;;;;;;;0.55;0.55;;;8.20;99.90;;;;;;5020624;28;20122;-74
2022/11/20 07:25:08;;;;;;;0.68;0.68;;;8.20;99.90;;;;;;5002798;28;20251;-74
2022/11/20 07:27:37;;;;;;;0.20;0.20;;;8.30;99.90;;;;;;5021052;28;20044;-74
2022/11/20 07:30:04;;;;;;;0.20;0.20;;;8.30;99.90;;;;;;5021333;28;20033;-74
2022/11/20 07:32:30;;;;;;;2.67;2.58;;;10.70;99.90;;;;;;5025897;28;20135;-76
2022/11/20 07:34:56;;;;;;;0.20;0.20;;;8.40;99.90;;;;;;5021490;28;20040;-74
2022/11/20 07:37:22;;;;;;;0.20;0.20;;;8.40;99.90;;;;;;5002560;28;20392;-74
2022/11/20 07:39:47;;;;;;;0.20;0.20;;;8.50;99.90;;;;;;5020451;28;20036;-75
2022/11/20 07:42:13;;;;;;;0.20;0.20;;;8.50;99.90;;;;;;5019970;28;20350;-74
2022/11/20 07:44:39;;;;;;;0.10;0.10;;;8.60;99.90;;;;;;5002086;28;20512;-74
2022/11/20 07:47:05;;;;;;;0.10;0.10;;;8.60;99.90;;;;;;5020182;28;20030;-74
2022/11/20 07:49:31;;;;;;;0.20;0.20;;;8.30;99.90;;;;;;5020569;28;20029;-74
2022/11/20 07:51:57;;;;;;;0.20;0.20;;;8.70;99.90;;;;;;5006845;28;20025;-74
2022/11/20 07:54:24;;;;;;;0.20;0.20;;;8.70;99.90;;;;;;5002060;28;20095;-75
2022/11/20 07:56:50;;;;;;;0.20;0.20;;;8.80;99.90;;;;;;5021604;28;20025;-74
2022/11/20 07:59:19;;;;;;;0.57;0.57;;;8.80;99.90;;;;;;5026383;28;20025;-73
2022/11/20 08:01:45;;;;;;;0.20;0.20;;;8.90;99.90;;;;;;5002257;28;20021;-74
2022/11/20 08:04:11;;;;;;;0.25;0.25;;;8.90;99.90;;;;;;5024726;28;20079;-75
2022/11/20 08:06:37;;;;;;;0.98;0.98;;;8.90;99.90;;;;;;5020378;28;20481;-74
2022/11/20 08:09:03;;;;;;;0.20;0.20;;;8.90;99.90;;;;;;5021352;28;20056;-74
2022/11/20 08:14:13;;;;;;;0.22;0.22;;;8.90;99.90;;;;;;5020886;28;20032;-76
2022/11/20 08:16:44;;;;;;;0.20;0.20;;;8.90;99.90;;;;;;5021422;28;20018;-74
2022/11/20 08:19:10;;;;;;;3.47;3.33;;;8.90;99.90;;;;;;5020159;28;20033;-75
2022/11/20 08:21:36;;;;;;;0.43;0.43;;;8.70;99.90;;;;;;5020199;28;20116;-75
2022/11/20 08:24:02;;;;;;;0.20;0.20;;;9.00;99.90;;;;;;5021852;28;20608;-75
2022/11/20 08:26:29;;;;;;;0.13;0.13;;;;;;;;;;5027941;28;20547;-74
2022/11/20 08:28:56;;;;;;;1.83;1.75;;;9.00;99.90;;;;;;5020899;28;20523;-75
2022/11/20 08:31:24;;;;;;;0.20;0.20;;;9.00;99.90;;;;;;5019772;28;20021;-75
2022/11/20 08:33:50;;;;;;;0.10;0.10;;;9.10;99.90;;;;;;5020744;28;20098;-75
2022/11/20 08:36:17;;;;;;;0.20;0.20;;;9.00;99.90;;;;;;5020342;28;20022;-74
2022/11/20 08:38:54;;;;;;;0.10;0.10;;;9.00;99.90;;;;;;5020441;28;20017;-74
2022/11/20 08:41:23;;;;;;;0.20;0.20;;;9.40;99.90;;;;;;5019775;28;20017;-74
2022/11/20 08:43:50;;;;;;;3.05;2.95;;;9.20;99.90;;;;;;5021127;28;20124;-74
2022/11/20 08:46:17;;;;;;;0.20;0.20;;;9.20;99.90;;;;;;5020282;28;20029;-73
2022/11/20 08:48:43;;;;;;;0.20;0.20;;;9.50;99.90;;;;;;5020500;28;20025;-74
2022/11/20 08:51:09;;;;;;;0.40;0.40;;;9.30;99.90;;;;;;5019282;28;20022;-74
2022/11/20 08:53:35;;;;;;;0.22;0.22;;;9.20;99.90;;;;;;5019963;28;20021;-74
2022/11/20 08:56:00;;;;;;;0.10;0.10;;;9.20;99.90;;;;;;5019898;28;20017;-75
2022/11/20 08:58:27;;;;;;;0.10;0.10;;;;;;;;;;5024782;28;20009;-74
2022/11/20 09:00:56;;;;;;;0.20;0.20;;;9.20;99.90;;;;;;5030542;28;20532;-75
2022/11/20 09:03:22;;;;;;;0.20;0.20;;;9.20;99.90;;;;;;5025424;28;20045;-76
2022/11/20 09:05:47;;;;;;;0.20;0.20;;;9.10;99.90;;;;;;5024611;28;20040;-75
2022/11/20 09:08:13;;;;;;;0.30;0.30;;;9.10;99.90;;;;;;5024295;28;20022;-75
2022/11/20 09:10:42;;;;;;;0.28;0.28;;;9.10;99.90;;;;;;5006553;28;20669;-75
2022/11/20 09:13:07;;;;;;;0.20;0.20;;;8.90;99.90;;;;;;5027100;28;20027;-75
2022/11/20 09:15:33;;;;;;;0.20;0.20;;;8.70;99.90;;;;;;5032898;28;20061;-75
2022/11/20 09:18:02;;;;;;;0.35;0.35;;;8.60;99.90;;;;;;5033883;28;20013;-75
2022/11/20 09:20:29;;;;;;;0.17;0.17;;;8.50;99.90;;;;;;5013920;28;20693;-75
2022/11/20 09:22:55;;;;;;;0.20;0.20;;;8.40;99.90;;;;;;5014838;28;20018;-76
2022/11/20 09:25:25;;;;;;;0.13;0.13;;;8.30;99.90;;;;;;5036441;28;20018;-75
2022/11/20 09:28:00;;;;;;;0.10;0.10;;;8.30;99.90;;;;;;5014798;28;20040;-75
2022/11/20 09:30:26;;;;;;;0.68;0.68;;;8.30;99.90;;;;;;5031227;28;20033;-76
2022/11/20 09:32:53;;;;;;;0.20;0.20;;;8.30;99.90;;;;;;5031329;28;20112;-75
2022/11/20 09:35:20;;;;;;;20.08;6.70;;;8.40;99.90;;;;;;5013515;28;20042;-75
2022/11/20 09:37:51;;;;;;;0.20;0.20;;;8.30;99.90;;;;;;5028972;28;20021;-75
2022/11/20 09:40:24;;;;;;;0.20;0.20;;;8.60;99.90;;;;;;5024888;28;20761;-75
2022/11/20 09:43:10;;;;;;;0.20;0.20;;;8.20;99.90;;;;;;5006783;28;20172;-75
2022/11/20 09:46:07;;;;;;;0.10;0.10;;;8.20;99.90;;;;;;5024401;28;20097;-75
2022/11/20 09:48:41;;;;;;;0.20;0.20;;;10.40;99.90;;;;;;5023790;28;20620;-75
2022/11/20 09:51:58;;;;;;;0.20;0.20;;;7.70;99.90;;;;;;5023852;28;20021;-74
2022/11/20 09:54:33;;;;;;;0.10;0.10;;;8.20;99.90;;;;;;4926015;29;20059;-74
2022/11/20 09:57:01;;;;;;;0.20;0.20;;;8.20;99.90;;;;;;4923369;29;20028;-74
2022/11/20 10:00:02;;;;;;;0.15;0.15;;;8.20;99.90;;;;;;4926761;29;20108;-75
2022/11/20 10:02:45;;;;;;;0.38;0.38;;;8.20;99.90;;;;;;4868651;29;20259;-75
2022/11/20 10:05:20;;;;;;;25.17;23.13;;;8.00;99.90;;;;;;4849473;29;20072;-73
2022/11/20 10:08:16;;;;;;;0.20;0.20;;;8.30;99.90;;;;;;4865132;29;20044;-75
2022/11/20 10:10:54;;;;;;;0.20;0.20;;;8.30;99.90;;;;;;4865782;29;20033;-75
2022/11/20 10:13:20;;;;;;;0.10;0.10;;;;;;;;;;4850376;29;20699;-75
2022/11/20 10:16:03;;;;;;;0.10;0.10;;;8.30;99.90;;;;;;4866621;29;20111;-73
2022/11/20 10:19:08;;;;;;;0.10;0.10;;;8.30;99.90;;;;;;4867165;29;20044;-73
2022/11/20 10:22:14;;;;;;;0.10;0.10;;;8.20;99.90;;;;;;4850083;29;20037;-75
2022/11/20 10:25:04;;;;;;;0.63;0.63;;;8.30;99.90;;;;;;4865310;29;20021;-75
2022/11/20 10:27:30;;;;;;;0.20;0.20;;;;;;;;;;4865125;29;20745;-74
2022/11/20 10:30:10;;;;;;;0.35;0.35;;;8.30;99.90;;;;;;4890224;28;20046;-74
2022/11/20 10:32:47;;;;;;;0.20;0.20;;;8.20;99.90;;;;;;4943427;28;20392;-74
2022/11/20 10:35:32;;;;;;;0.15;0.15;;;8.20;99.90;;;;;;4960462;28;20067;-75
2022/11/20 10:38:15;;;;;;;0.20;0.20;;;8.20;99.90;;;;;;5022365;28;20101;-75
2022/11/20 10:41:24;;;;;;;0.20;0.20;;;7.20;99.90;;;;;;5022377;28;20135;-74
2022/11/20 10:43:42;;;;;;;0.10;0.10;;;;;;;;;;5026006;28;20075;-74
2022/11/20 10:46:24;;;;;;;0.22;0.22;;;8.00;99.90;;;;;;5023601;28;20029;-75
2022/11/20 10:48:51;;;;;;;0.17;0.17;;;7.90;99.90;;;;;;5022753;28;20715;-75
2022/11/20 10:51:28;;;;;;;0.20;0.20;;;7.90;99.90;;;;;;5022897;28;20025;-75
2022/11/20 10:54:17;;;;;;;0.20;0.20;;;7.90;99.90;;;;;;5021324;28;20029;-75
2022/11/20 10:56:53;;;;;;;0.20;0.20;;;6.80;99.90;;;;;;5021372;28;20025;-74
2022/11/20 10:59:19;;;;;;;0.20;0.20;;;;;;;;;;5003188;28;20022;-75
2022/11/20 11:01:45;;;;;;;0.22;0.22;;;7.80;99.90;;;;;;5020635;28;20104;-75
2022/11/20 11:04:32;;;;;;;0.20;0.20;;;7.80;99.90;;;;;;5021219;28;20110;-74
2022/11/20 11:07:12;;;;;;;2.67;2.58;;;4.80;99.90;;;;;;5004983;28;20669;-75
2022/11/20 11:09:47;;;;;;;0.30;0.30;;;7.70;99.90;;;;;;5024723;28;20018;-75
2022/11/20 11:12:13;;;;;;;0.10;0.10;;;7.80;99.90;;;;;;5003562;28;20640;-75
2022/11/20 11:14:46;;;;;;;0.10;0.10;;;7.80;99.90;;;;;;5020857;28;20029;-75
2022/11/20 11:17:27;;;;;;;0.10;0.10;;;7.70;99.90;;;;;;5020837;28;20534;-74
2022/11/20 11:20:18;;;;;;;0.10;0.10;;;7.70;99.90;;;;;;5019500;28;20109;-76
2022/11/20 11:22:51;;;;;;;0.10;0.10;;;7.60;99.90;;;;;;5020942;28;20504;-75
2022/11/20 11:25:25;;;;;;;0.10;0.10;;;7.70;99.90;;;;;;5020888;28;20025;-74
2022/11/20 11:27:52;;;;;;;0.13;0.13;;;7.60;99.90;;;;;;5020897;28;20044;-76
2022/11/20 11:30:20;;;;;;;0.10;0.10;;;7.60;99.90;;;;;;5021223;28;20096;-76
2022/11/20 11:32:46;;;;;;;0.17;0.17;;;7.60;99.90;;;;;;5020969;28;20034;-75
2022/11/20 11:35:21;;;;;;;0.10;0.10;;;7.60;99.90;;;;;;5019808;28;20033;-75
2022/11/20 11:37:48;;;;;;;1.65;1.65;;;;;;;;;;5020134;28;20021;-75
2022/11/20 11:40:17;;;;;;;0.10;0.10;;;5.00;99.90;;;;;;5020572;28;20234;-74
2022/11/20 11:42:56;;;;;;;0.10;0.10;;;7.70;99.90;;;;;;5019842;28;20021;-75
2022/11/20 11:45:22;;;;;;;0.10;0.10;;;7.60;99.90;;;;;;5019783;28;20025;-75
2022/11/20 11:47:51;;;;;;;0.20;0.20;;;7.60;99.90;;;;;;5019539;28;20045;-75
2022/11/20 11:50:25;;;;;;;0.20;0.20;;;7.70;99.90;;;;;;5020234;28;20507;-75
2022/11/20 11:53:21;;;;;;;0.20;0.20;;;7.60;99.90;;;;;;5020851;28;20030;-75
2022/11/20 11:56:02;;;;;;;0.20;0.20;;;7.90;99.90;;;;;;5018401;28;20034;-75
2022/11/20 11:58:50;;;;;;;0.10;0.10;;;8.10;99.90;;;;;;5022369;28;20029;-75
2022/11/20 12:01:27;;;;;;;0.10;0.10;;;9.20;99.90;;;;;;5019901;28;20496;-75
2022/11/20 12:04:26;;;;;;;0.15;0.15;;;7.60;99.90;;;;;;5005077;28;20111;-75
2022/11/20 12:07:10;;;;;;;0.10;0.10;;;7.60;99.90;;;;;;5023305;28;20079;-75
2022/11/20 12:09:45;;;;;;;0.15;0.15;;;7.60;99.90;;;;;;5021047;28;20536;-75
2022/11/20 12:12:20;;;;;;;0.20;0.20;;;7.60;99.90;;;;;;5002547;28;20242;-74
2022/11/20 12:14:49;;;;;;;0.10;0.10;;;7.60;99.90;;;;;;5020766;28;20022;-75
2022/11/20 12:17:16;;;;;;;0.20;0.20;;;7.70;99.90;;;;;;5020713;28;20028;-76
2022/11/20 12:19:43;;;;;;;0.20;0.20;;;7.70;99.90;;;;;;5021075;28;20068;-73
2022/11/20 12:22:33;;;;;;;0.20;0.20;;;7.70;99.90;;;;;;5020891;28;20302;-74
2022/11/20 12:25:07;;;;;;;0.20;0.20;;;7.60;99.90;;;;;;5020967;28;20021;-75
2022/11/20 12:27:44;;;;;;;0.20;0.20;;;7.60;99.90;;;;;;5020393;28;20033;-75
2022/11/20 12:30:16;;;;;;;0.20;0.20;;;7.70;99.90;;;;;;5020554;28;20018;-74
2022/11/20 12:33:18;;;;;;;58.22;52.88;;;7.80;99.90;;;;;;5029415;28;20033;-75
2022/11/20 12:36:38;;;;;;;0.20;0.20;;;7.80;99.90;;;;;;5020509;28;20033;-76
2022/11/20 12:39:08;;;;;;;0.20;0.20;;;7.70;99.90;;;;;;4920638;29;20106;-75
2022/11/20 12:45:09;;;;;;;;;;;7.60;99.90;;;;;;4866264;29;20045;-74
2022/11/20 12:48:12;;;;;;;0.10;0.10;;;7.50;99.90;;;;;;4865197;29;20018;-74
2022/11/20 12:50:56;;;;;;;0.17;0.17;;;7.40;99.90;;;;;;4870398;29;20029;-74
2022/11/20 12:53:25;;;;;;;0.20;0.20;;;7.40;99.90;;;;;;4873225;29;20045;-75
2022/11/20 12:56:15;;;;;;;2.00;1.90;;;7.40;99.90;;;;;;4875291;29;20157;-75
2022/11/20 12:58:55;;;;;;;0.30;0.30;;;7.40;99.90;;;;;;4871519;29;20029;-75
2022/11/20 13:01:39;;;;;;;1.70;1.65;;;7.40;99.90;;;;;;4870036;29;20040;-75
2022/11/20 13:04:33;;;;;;;0.13;0.13;;;7.30;99.90;;;;;;4868238;29;20048;-77
2022/11/20 13:07:03;;;;;;;0.17;0.17;;;7.30;99.90;;;;;;4869525;29;20052;-77
2022/11/20 13:09:30;;;;;;;0.10;0.10;;;7.30;99.90;;;;;;4867468;29;20103;-75
2022/11/20 13:12:09;;;;;;;0.20;0.20;;;7.20;99.90;;;;;;4865248;29;20663;-76
2022/11/20 13:14:35;;;;;;;0.10;0.10;;;;;;;;;;4939335;29;20027;-75
2022/11/20 13:17:28;;;;;;;0.20;0.20;;;7.30;99.90;;;;;;4939394;29;20071;-76
2022/11/20 13:19:58;;;;;;;0.10;0.10;;;7.20;99.90;;;;;;4945441;28;20027;-76
2022/11/20 13:22:43;;;;;;;0.63;0.63;;;7.10;99.90;;;;;;5002736;28;20034;-76
2022/11/20 13:25:10;;;;;;;0.17;0.17;;;6.90;99.90;;;;;;5020544;28;20048;-76
2022/11/20 13:27:47;;;;;;;0.20;0.20;;;7.60;99.90;;;;;;5019408;28;20056;-76